Princeton, Florida
Current Conditions -  °F | °C
As of 11:58 PM on Saturday 22 Nov 2014 (Local Time) from KHST Reporting Station
Clear Clear  
Wind Chill: 76°   Ceiling: Unl
Heat Index: 77°   Visibility: 10mi
Dew Point: 72°   Wind: 9mph
Humidity: 87%   Direction: 100°E
Pressure: 30.06"   Gusts: NA
Location:  25.5445°N, 80.4236°W
Report Text: KHST 230458Z AUTO 10008KT 10SM CLR 25/22 A3006 RMK AO2 SLP182 T02450222 402610227 $
Loading
Personal Weather Stations






























Interactive Weather Map New forecast layout! Learn more

10-Day Weather Forecast

Advertisements
Track Severe Weather on mobile